Normangee, TX

3:10 AM CDT on August 22, 2014 (GMT -0500)
Easterwood | Change Station
CLOSE
Current Station
Airport
Location: College Station,
Elevation: 328 ft
Nearby Weather Stations

Elev 328 ft 30.59 °N, 96.36 °W | Updated 17 minutes ago

Overcast
Overcast
80 °F
Feels Like 85 °F
N
13
Wind Variable Wind from South

Today
High -- | Low -- °F
--% Chance of Precip.
Yesterday
High -- | Low -- °F
Precip. -- in
6:54 AM 7:59 PM
Waning Crescent, 9% visible
Pressure 30.03 in
Visibility 10.0 miles
Clouds Mostly Cloudy 1200 ft
Overcast 1700 ft
Heat Index 85 °F
Dew Point 75 °F
Humidity 85%
Rainfall 0.00 in
Snow Depth Not available.
UV 0 out of 12
Pollen 8.00 out of 12
Air Quality Not available.
Flu Activity Not available.
METAR KCLL 220753Z 18011KT 10SM BKN012 OVC017 27/24 A3005 RMK AO2 SLP168 T02670239

More Conditions Fewer Conditions

Pressure 30.03 in
Visibility 10.0 miles
Clouds Mostly Cloudy 1200 ft
Overcast 1700 ft
Heat Index 85 °F
Dew Point 75 °F
Humidity 85%
Rainfall 0.00 in
Snow Depth Not available.
UV 0 out of 12
Pollen 8.00 out of 12
Air Quality Not available.
Flu Activity Not available.
METAR KCLL 220753Z 18011KT 10SM BKN012 OVC017 27/24 A3005 RMK AO2 SLP168 T02670239

More Conditions Fewer Conditions

10-Day Weather Forecast

Almanac

Astronomy

Aug. 22, 2014 Rise Set
Actual Time 6:54 AM CDT 7:59 PM CDT
Civil Twilight 6:29 AM CDT 8:24 PM CDT
Nautical Twilight 5:59 AM CDT 8:54 PM CDT
Astronomical Twilight 5:29 AM CDT 9:24 PM CDT
Moon 4:23 AM CDT 6:05 PM CDT
Length of Visible Light 13h 54m
Length of Day
13h 04m
Tomorrow will be 1m 44s shorter.
Waning Crescent, 9% of the Moon is Illuminated
Today
Waning Crescent
Aug 25
New
Sep 2
First Quarter
Sep 8
Full
Sep 15
Last Quarter

Today's Extremes

State Highs State Lows

Community

WunderPhotos

Upload Photos

1,746,144 photos uploaded!

Nearby

Snow Depth

Station Depth Elevation
No new snow has been reported.

Earthquake Activity

City Distance Mag. Time & Date
No recent earthquake activity has been reported nearby.
Minimum magnitude displayed is 2.5.

Coastal Water Temperatures

Place Temperature
No Stations Reporting

Nearby Weather Stations